CheckWX is a tool to help pilots better visualize weather data.  It is not intended as a substitute for an official pre-flight weather briefing.

09:25:23 UTC

KOGA METAR
Searle Field Airport
Ogallala, Nebraska, USA
Current

30 mins ago

KOGA 200855Z AUTO 00000KT 3SM -SN SCT029 OVC045 M10/M11 A2970 RMK AO2 T11011111
Observed
Feb-20 @ 08:55 UTC
Visibility
4,828 meters
Flight Rules
MVFR
Conditions
Light Snow
Cloud Levels
  • Scattered at 2,900' AGL
  • Overcast at 4,500' AGL
Temperature
-10°C / 14°F
Dewpoint
-11°C / 12°F
Humidity
92%
Altimeter
29.7" Hg
Pressure
1005.72 hPa
Previous

50 mins ago

KOGA 200835Z AUTO 00000KT 3SM -SN BKN045 OVC060 M10/M11 A2971 RMK AO2 T11001111
Observed
Feb-20 @ 08:35 UTC
Visibility
4,828 meters
Flight Rules
MVFR
Conditions
Light Snow
Cloud Levels
  • Broken at 4,500' AGL
  • Overcast at 6,000' AGL
Temperature
-10°C / 14°F
Dewpoint
-11°C / 12°F
Humidity
92%
Altimeter
29.71" Hg
Pressure
1006.12 hPa
Previous

1 hour ago

KOGA 200815Z AUTO 00000KT 2SM -SN SCT030 BKN045 OVC060 M10/M11 A2971 RMK AO2 T11001111
Observed
Feb-20 @ 08:15 UTC
Visibility
3,219 meters
Flight Rules
IFR
Conditions
Light Snow
Cloud Levels
  • Scattered at 3,000' AGL
  • Broken at 4,500' AGL
  • Overcast at 6,000' AGL
Temperature
-10°C / 14°F
Dewpoint
-11°C / 12°F
Humidity
92%
Altimeter
29.71" Hg
Pressure
1006.12 hPa